Terminal Aerodrome Forecast
Issued by NWS Kansas City/Pleasant Hill, MO

Home | Current Version | Previous Version | Text Only | Print | Product List | Glossary On
Versions: 1 2 3 4 5 6 7 8 9 10 11 12 13 14 15 16 17 18 19 20 21 22 23 24 25
252
FTUS43 KEAX 250858 AAB
TAFMCI
TAF AMD
KMCI 250858Z 2509/2606 03006KT P6SM VCSH OVC008
      TEMPO 2509/2512 5SM BR OVC002
     FM251700 35011KT P6SM VCTS OVC008CB
     FM260000 33008KT P6SM OVC008
     FM260500 32006KT P6SM BKN010=

USA.gov is the U.S. government's official web portal to all federal, state and local government web resources and services.